createdAt,value
2018-12-12T00:02:05.905Z,3.33
2018-12-12T00:04:36.408Z,3.77
2018-12-12T00:07:07.135Z,3.57
2018-12-12T00:09:37.761Z,3.53
2018-12-12T00:12:08.329Z,3.60
2018-12-12T00:14:38.845Z,3.63
2018-12-12T00:17:09.339Z,3.70
2018-12-12T00:19:39.870Z,3.87
2018-12-12T00:22:10.277Z,3.30
2018-12-12T00:24:41.483Z,3.73
2018-12-12T00:27:11.952Z,3.60
2018-12-12T00:29:42.398Z,3.63
2018-12-12T00:32:12.883Z,3.87
2018-12-12T00:34:43.315Z,3.37
2018-12-12T00:37:13.645Z,4.37
2018-12-12T00:39:44.091Z,3.77
2018-12-12T00:42:14.540Z,3.90
2018-12-12T00:44:45.017Z,3.53
2018-12-12T00:47:15.570Z,3.77
2018-12-12T00:49:46.037Z,3.77
2018-12-12T00:52:16.496Z,3.90
2018-12-12T00:54:47.396Z,3.17
2018-12-12T00:57:18.284Z,3.40
2018-12-12T00:59:48.790Z,3.43
2018-12-12T01:02:19.320Z,3.30
2018-12-12T01:04:50.603Z,3.40
2018-12-12T01:07:20.930Z,3.47
2018-12-12T01:09:51.358Z,3.50
2018-12-12T01:12:21.728Z,3.90
2018-12-12T01:14:52.243Z,3.27
2018-12-12T01:17:22.677Z,2.87
2018-12-12T01:19:53.137Z,3.67
2018-12-12T01:22:23.598Z,2.90
2018-12-12T01:24:54.150Z,3.30
2018-12-12T01:27:24.514Z,3.40
2018-12-12T01:29:54.932Z,3.50
2018-12-12T01:32:25.417Z,3.23
2018-12-12T01:34:55.818Z,3.40
2018-12-12T01:37:26.240Z,3.57
2018-12-12T01:39:56.674Z,3.60
2018-12-12T01:42:27.062Z,3.37
2018-12-12T01:44:57.405Z,3.40
2018-12-12T01:47:27.738Z,3.43
2018-12-12T01:49:58.183Z,3.70
2018-12-12T01:52:28.566Z,2.93
2018-12-12T01:54:58.997Z,3.30
2018-12-12T01:57:29.587Z,3.77
2018-12-12T02:00:00.129Z,3.60
2018-12-12T02:02:30.707Z,3.33
2018-12-12T02:05:01.369Z,3.47
2018-12-12T02:07:32.326Z,3.50
2018-12-12T02:10:03.094Z,3.40
2018-12-12T02:12:33.677Z,3.43
2018-12-12T02:15:04.587Z,3.07
2018-12-12T02:17:35.151Z,3.13
2018-12-12T02:20:06.327Z,3.70
2018-12-12T02:22:37.193Z,3.47
2018-12-12T02:25:07.906Z,3.60
2018-12-12T02:27:38.481Z,3.57
2018-12-12T02:30:09.313Z,3.33
2018-12-12T02:32:39.909Z,3.63
2018-12-12T02:35:10.391Z,3.60
2018-12-12T02:37:40.811Z,3.60
2018-12-12T02:40:11.298Z,3.47
2018-12-12T02:42:41.736Z,3.63
2018-12-12T02:45:12.278Z,3.73
2018-12-12T02:47:42.998Z,4.30
2018-12-12T02:50:13.532Z,4.20
2018-12-12T02:52:44.052Z,4.27
2018-12-12T02:55:14.630Z,3.77
2018-12-12T02:57:45.127Z,3.20
2018-12-12T03:00:15.935Z,4.50
2018-12-12T03:02:46.378Z,3.57
2018-12-12T03:05:16.943Z,3.83
2018-12-12T03:07:47.458Z,3.57
2018-12-12T03:10:17.927Z,3.33
2018-12-12T03:12:48.530Z,3.60
2018-12-12T03:15:19.131Z,3.90
2018-12-12T03:17:49.711Z,3.80
2018-12-12T03:20:20.233Z,3.60
2018-12-12T03:22:50.732Z,4.30
2018-12-12T03:25:21.199Z,4.10
2018-12-12T03:27:51.655Z,3.70
2018-12-12T03:30:22.043Z,3.77
2018-12-12T03:32:52.525Z,3.50
2018-12-12T03:35:22.930Z,3.50
2018-12-12T03:37:53.275Z,3.77
2018-12-12T03:40:24.127Z,4.13
2018-12-12T03:42:54.989Z,3.87
2018-12-12T03:45:25.582Z,3.70
2018-12-12T03:47:55.951Z,3.80
2018-12-12T03:50:26.287Z,3.93
2018-12-12T03:52:56.660Z,3.90
2018-12-12T03:55:27.163Z,3.83
2018-12-12T03:57:57.622Z,4.07
2018-12-12T04:00:28.173Z,4.20
2018-12-12T04:02:58.902Z,4.47
2018-12-12T04:05:29.338Z,4.47
2018-12-12T04:07:59.778Z,5.00
2018-12-12T04:10:30.439Z,4.40
2018-12-12T04:13:00.954Z,4.00
2018-12-12T04:15:31.508Z,4.43
2018-12-12T04:18:02.087Z,3.80
2018-12-12T04:20:32.533Z,4.12
2018-12-12T04:23:04.658Z,3.90
2018-12-12T04:25:35.778Z,4.00
2018-12-12T04:28:06.227Z,4.37
2018-12-12T04:30:36.895Z,4.37
2018-12-12T04:33:07.570Z,4.10
2018-12-12T04:35:44.274Z,4.30
2018-12-12T04:38:14.789Z,4.20
2018-12-12T04:40:45.254Z,4.40
2018-12-12T04:43:15.775Z,3.97
2018-12-12T04:45:46.350Z,3.93
2018-12-12T04:48:16.891Z,4.10
2018-12-12T04:50:47.458Z,4.53
2018-12-12T04:53:17.877Z,4.47
2018-12-12T04:55:48.597Z,4.30
2018-12-12T04:58:19.094Z,4.57
2018-12-12T05:00:49.757Z,3.50
2018-12-12T05:03:20.335Z,4.37
2018-12-12T05:05:50.812Z,4.27
2018-12-12T05:08:21.146Z,4.43
2018-12-12T05:10:51.566Z,4.63
2018-12-12T05:13:21.907Z,4.12
2018-12-12T05:15:52.285Z,4.33
2018-12-12T05:18:22.774Z,4.07
2018-12-12T05:20:53.489Z,4.23
2018-12-12T05:23:23.849Z,4.37
2018-12-12T05:25:54.226Z,4.77
2018-12-12T05:28:24.502Z,4.70
2018-12-12T05:30:54.877Z,4.00
2018-12-12T05:33:25.189Z,4.80
2018-12-12T05:35:56.816Z,4.33
2018-12-12T05:38:27.496Z,4.30
2018-12-12T05:40:58.014Z,4.70
2018-12-12T05:43:28.800Z,4.70
2018-12-12T05:45:59.491Z,4.80
2018-12-12T05:48:30.289Z,4.20
2018-12-12T05:51:00.855Z,4.20
2018-12-12T05:53:31.564Z,4.40
2018-12-12T05:56:02.547Z,4.60
2018-12-12T05:58:33.678Z,4.67
2018-12-12T06:01:04.209Z,4.70
2018-12-12T06:03:34.668Z,4.80
2018-12-12T06:06:05.236Z,4.83
2018-12-12T06:08:35.716Z,4.07
2018-12-12T06:11:06.217Z,5.70
2018-12-12T06:13:36.681Z,4.83
2018-12-12T06:16:07.388Z,5.27
2018-12-12T06:18:37.883Z,5.20
2018-12-12T06:21:08.367Z,4.37
2018-12-12T06:23:38.826Z,4.87
2018-12-12T06:26:09.397Z,4.93
2018-12-12T06:28:39.813Z,4.57
2018-12-12T06:31:10.793Z,4.63
2018-12-12T06:33:41.330Z,4.67
2018-12-12T06:36:11.918Z,4.77
2018-12-12T06:38:42.369Z,4.77
2018-12-12T06:41:12.906Z,4.93
2018-12-12T06:43:43.288Z,4.53
2018-12-12T06:46:13.863Z,4.53
2018-12-12T06:48:44.453Z,4.47
2018-12-12T06:51:15.149Z,4.83
2018-12-12T06:53:45.679Z,4.70
2018-12-12T06:56:16.289Z,4.53
2018-12-12T06:58:46.763Z,4.63
2018-12-12T07:01:17.326Z,4.87
2018-12-12T07:03:48.023Z,4.90
2018-12-12T07:06:18.677Z,4.47
2018-12-12T07:08:49.151Z,4.53
2018-12-12T07:11:19.512Z,4.97
2018-12-12T07:13:49.868Z,4.60
2018-12-12T07:16:20.342Z,4.60
2018-12-12T07:18:50.915Z,4.27
2018-12-12T07:21:21.359Z,4.57
2018-12-12T07:23:51.797Z,5.20
2018-12-12T07:26:22.226Z,4.10
2018-12-12T07:28:52.806Z,4.70
2018-12-12T07:31:23.310Z,4.23
2018-12-12T07:34:00.716Z,4.30
2018-12-12T07:36:28.022Z,4.27
2018-12-12T07:39:05.419Z,4.57
2018-12-12T07:41:36.276Z,4.43
2018-12-12T07:44:07.037Z,4.73
2018-12-12T07:46:38.217Z,4.80
2018-12-12T07:49:09.871Z,4.40
2018-12-12T07:51:40.376Z,4.37
2018-12-12T07:54:10.796Z,4.47
2018-12-12T07:56:41.310Z,4.77
2018-12-12T07:59:12.333Z,4.83
2018-12-12T08:01:43.297Z,5.00
2018-12-12T08:04:13.712Z,4.77
2018-12-12T08:06:44.311Z,4.40
2018-12-12T08:09:14.833Z,4.80
2018-12-12T08:11:45.357Z,4.47
2018-12-12T08:14:15.830Z,4.47
2018-12-12T08:16:46.691Z,4.73
2018-12-12T08:19:17.194Z,4.63
2018-12-12T08:21:48.173Z,4.63
2018-12-12T08:24:18.725Z,4.83
2018-12-12T08:26:49.293Z,5.43
2018-12-12T08:29:19.799Z,5.50
2018-12-12T08:31:50.466Z,5.20
2018-12-12T08:34:20.880Z,5.57
2018-12-12T08:36:51.934Z,5.17
2018-12-12T08:39:22.795Z,6.30
2018-12-12T08:41:53.461Z,6.10
2018-12-12T08:47:23.905Z,6.57
2018-12-12T08:49:54.487Z,6.20
2018-12-12T08:52:25.065Z,6.07
2018-12-12T08:54:55.686Z,6.73
2018-12-12T08:57:26.299Z,6.10
2018-12-12T08:59:56.757Z,6.83
2018-12-12T09:02:27.317Z,5.93
2018-12-12T09:04:58.653Z,6.43
2018-12-12T09:07:29.293Z,5.80
2018-12-12T09:10:01.498Z,6.53
2018-12-12T09:12:31.964Z,6.77
2018-12-12T09:15:02.396Z,6.70
2018-12-12T09:17:32.892Z,7.20
2018-12-12T09:20:08.863Z,7.30
2018-12-12T09:22:39.307Z,7.20
2018-12-12T09:25:09.833Z,6.87
2018-12-12T09:27:40.285Z,7.47
2018-12-12T09:30:10.895Z,7.47
2018-12-12T09:32:41.497Z,6.60
2018-12-12T09:35:11.931Z,7.67
2018-12-12T09:37:42.298Z,6.77
2018-12-12T09:40:13.280Z,7.13
2018-12-12T09:42:43.760Z,7.13
2018-12-12T09:45:14.228Z,6.57
2018-12-12T09:47:44.897Z,6.53
2018-12-12T09:50:15.627Z,6.77
2018-12-12T09:52:46.025Z,6.93
2018-12-12T09:55:16.385Z,6.33
2018-12-12T09:57:46.817Z,7.20
2018-12-12T10:00:17.541Z,6.37
2018-12-12T10:02:48.036Z,6.87
2018-12-12T10:05:18.558Z,6.17
2018-12-12T10:07:49.237Z,6.37
2018-12-12T10:10:19.784Z,6.20
2018-12-12T10:12:50.633Z,6.23
2018-12-12T10:15:20.971Z,6.80
2018-12-12T10:17:51.537Z,6.40
2018-12-12T10:20:21.981Z,7.87
2018-12-12T10:22:52.727Z,7.03
2018-12-12T10:25:23.262Z,6.17
2018-12-12T10:27:53.697Z,6.70
2018-12-12T10:30:24.156Z,6.40
2018-12-12T10:32:54.665Z,6.17
2018-12-12T10:35:25.075Z,6.67
2018-12-12T10:37:55.539Z,5.87
2018-12-12T10:40:26.054Z,5.80
2018-12-12T10:42:56.613Z,6.67
2018-12-12T10:45:27.124Z,6.03
2018-12-12T10:47:57.562Z,6.03
2018-12-12T10:50:27.923Z,5.80
2018-12-12T10:52:58.690Z,5.60
2018-12-12T10:55:29.011Z,6.07
2018-12-12T10:57:59.979Z,5.77
2018-12-12T11:00:30.445Z,5.87
2018-12-12T11:03:05.787Z,5.33
2018-12-12T11:05:36.224Z,5.43
2018-12-12T11:08:06.793Z,5.40
2018-12-12T11:10:37.534Z,5.03
2018-12-12T11:13:08.973Z,5.53
2018-12-12T11:15:39.746Z,5.23
2018-12-12T11:18:10.168Z,5.20
2018-12-12T11:20:42.997Z,5.00
2018-12-12T11:23:16.617Z,5.53
2018-12-12T11:25:47.239Z,5.33
2018-12-12T11:28:17.865Z,4.77
2018-12-12T11:30:48.527Z,5.40
2018-12-12T11:33:19.234Z,5.13
2018-12-12T11:35:49.737Z,5.17
2018-12-12T11:38:20.197Z,5.77
2018-12-12T11:40:50.788Z,5.67
2018-12-12T11:43:21.753Z,5.20
2018-12-12T11:45:52.292Z,5.60
2018-12-12T11:48:23.168Z,5.00
2018-12-12T11:50:53.657Z,5.50
2018-12-12T11:53:24.226Z,5.40
2018-12-12T11:55:54.771Z,5.03
2018-12-12T11:58:25.386Z,5.77
2018-12-12T12:00:56.015Z,5.23
2018-12-12T12:03:32.226Z,5.87
2018-12-12T12:06:02.793Z,4.60
2018-12-12T12:08:53.328Z,4.33
2018-12-12T12:11:25.156Z,3.97
2018-12-12T12:13:56.500Z,4.43
2018-12-12T12:16:27.416Z,5.13
2018-12-12T12:18:58.389Z,5.00
2018-12-12T12:21:28.766Z,4.67
2018-12-12T12:23:59.970Z,4.70
2018-12-12T12:26:30.686Z,5.13
2018-12-12T12:29:01.917Z,4.93
2018-12-12T12:31:32.524Z,5.23
2018-12-12T12:34:03.358Z,4.77
2018-12-12T12:36:35.575Z,6.03
2018-12-12T12:39:09.989Z,5.27
2018-12-12T12:41:40.486Z,5.37
2018-12-12T12:44:10.932Z,4.80
2018-12-12T12:46:43.562Z,5.00
2018-12-12T12:49:14.039Z,4.30
2018-12-12T12:51:44.630Z,5.43
2018-12-12T12:54:15.377Z,5.50
2018-12-12T12:56:46.374Z,5.03
2018-12-12T12:59:17.176Z,5.00
2018-12-12T13:01:47.746Z,5.47
2018-12-12T13:04:18.314Z,5.47
2018-12-12T13:06:48.795Z,5.50
2018-12-12T13:09:31.938Z,5.13
2018-12-12T13:12:06.783Z,6.10
2018-12-12T13:14:37.892Z,4.73
2018-12-12T13:17:09.049Z,5.27
2018-12-12T13:19:40.043Z,5.50
2018-12-12T13:22:10.912Z,5.07
2018-12-12T13:24:41.790Z,5.07
2018-12-12T13:27:12.810Z,5.60
2018-12-12T13:29:43.726Z,5.67
2018-12-12T13:32:14.674Z,5.20
2018-12-12T13:34:45.604Z,5.70
2018-12-12T13:37:16.445Z,5.63
2018-12-12T13:39:47.142Z,5.83
2018-12-12T13:42:17.951Z,6.17
2018-12-12T13:44:48.712Z,5.60
2018-12-12T13:47:19.724Z,5.30
2018-12-12T13:49:51.058Z,5.30
2018-12-12T13:52:22.216Z,5.40
2018-12-12T13:54:53.226Z,5.13
2018-12-12T13:57:24.584Z,5.80
2018-12-12T13:59:55.576Z,5.20
2018-12-12T14:02:26.748Z,6.07
2018-12-12T14:04:57.658Z,5.50
2018-12-12T14:07:28.688Z,5.07
2018-12-12T14:09:59.772Z,5.03
2018-12-12T14:12:30.737Z,5.73
2018-12-12T14:15:01.660Z,5.60
2018-12-12T14:17:32.417Z,5.27
2018-12-12T14:20:03.593Z,5.53
2018-12-12T14:22:34.572Z,4.90
2018-12-12T14:25:05.820Z,5.80
2018-12-12T14:27:39.054Z,5.60
2018-12-12T14:30:10.848Z,5.40
2018-12-12T14:32:41.878Z,6.37
2018-12-12T14:35:12.576Z,5.53
2018-12-12T14:37:43.378Z,5.70
2018-12-12T14:40:14.447Z,6.00
2018-12-12T14:42:45.180Z,5.33
2018-12-12T14:45:15.953Z,5.23
2018-12-12T14:47:46.622Z,5.83
2018-12-12T14:50:17.761Z,5.53
2018-12-12T14:52:48.538Z,5.83
2018-12-12T14:55:19.316Z,4.70
2018-12-12T14:57:50.146Z,5.27
2018-12-12T15:00:21.063Z,5.00
2018-12-12T15:02:51.898Z,5.47
2018-12-12T15:05:22.972Z,5.03
2018-12-12T15:07:53.798Z,5.10
2018-12-12T15:10:24.807Z,5.47
2018-12-12T15:12:55.774Z,5.47
2018-12-12T15:15:27.049Z,5.63
2018-12-12T15:17:57.688Z,5.40
2018-12-12T15:20:28.703Z,5.10
2018-12-12T15:22:59.396Z,5.70
2018-12-12T15:25:30.122Z,5.33
2018-12-12T15:28:00.723Z,5.33
2018-12-12T15:30:31.535Z,5.17
2018-12-12T15:33:02.326Z,5.57
2018-12-12T15:35:33.098Z,5.27
2018-12-12T15:38:03.760Z,5.13
2018-12-12T15:40:34.829Z,4.80
2018-12-12T15:43:05.737Z,5.20
2018-12-12T15:45:36.457Z,5.77
2018-12-12T15:48:07.968Z,5.22
2018-12-12T15:50:38.764Z,5.07
2018-12-12T15:53:09.478Z,5.47
2018-12-12T15:55:40.173Z,5.57
2018-12-12T15:58:10.915Z,5.47
2018-12-12T16:00:41.922Z,5.60
2018-12-12T16:03:13.294Z,5.47
2018-12-12T16:05:43.886Z,5.43
2018-12-12T16:08:14.481Z,5.80
2018-12-12T16:10:45.181Z,5.93
2018-12-12T16:13:15.846Z,5.07
2018-12-12T16:15:46.512Z,5.80
2018-12-12T16:18:17.194Z,5.80
2018-12-12T16:20:47.913Z,6.17
2018-12-12T16:23:18.519Z,6.07
2018-12-12T16:25:49.181Z,6.47
2018-12-12T16:28:19.745Z,6.17
2018-12-12T16:30:54.944Z,6.37
2018-12-12T16:33:29.238Z,5.60
2018-12-12T16:35:59.874Z,6.07
2018-12-12T16:38:30.369Z,6.07
2018-12-12T16:41:00.850Z,6.43
2018-12-12T16:43:31.490Z,6.17
2018-12-12T16:46:02.990Z,6.53
2018-12-12T16:48:35.286Z,5.97
2018-12-12T16:51:06.476Z,6.50
2018-12-12T16:53:37.092Z,6.00
2018-12-12T16:56:07.670Z,6.07
2018-12-12T16:58:38.139Z,6.07
2018-12-12T17:01:09.087Z,6.27
2018-12-12T17:03:43.220Z,6.10
2018-12-12T17:06:14.144Z,5.83
2018-12-12T17:08:44.932Z,6.67
2018-12-12T17:11:15.564Z,6.60
2018-12-12T17:13:46.220Z,6.63
2018-12-12T17:16:17.196Z,5.90
2018-12-12T17:21:54.765Z,6.67
2018-12-12T17:24:25.434Z,6.63
2018-12-12T17:26:56.715Z,6.80
2018-12-12T17:29:29.959Z,6.50
2018-12-12T17:32:11.126Z,6.47
2018-12-12T17:35:00.420Z,6.30
2018-12-12T17:37:31.567Z,6.50
2018-12-12T17:43:12.673Z,6.30
2018-12-12T17:51:52.292Z,5.90
2018-12-12T17:54:23.272Z,6.73
2018-12-12T17:56:56.783Z,6.03
2018-12-12T17:59:27.598Z,7.43
2018-12-12T18:01:59.408Z,6.00
2018-12-12T18:04:39.429Z,6.23
2018-12-12T18:07:12.398Z,6.57
2018-12-12T18:09:43.397Z,7.07
2018-12-12T18:12:17.256Z,6.50
2018-12-12T18:14:48.774Z,6.20
2018-12-12T18:17:20.816Z,5.60
2018-12-12T18:19:52.607Z,6.40
2018-12-12T18:22:26.753Z,6.10
2018-12-12T18:24:58.087Z,5.75
2018-12-12T18:27:29.493Z,6.03
2018-12-12T18:30:01.136Z,5.80
2018-12-12T18:32:32.724Z,5.90
2018-12-12T18:35:04.535Z,5.93
2018-12-12T18:37:36.111Z,5.63
2018-12-12T18:40:13.483Z,6.37
2018-12-12T18:42:50.483Z,6.03
2018-12-12T18:45:27.816Z,5.73
2018-12-12T18:47:59.507Z,5.27
2018-12-12T18:50:31.128Z,5.43
2018-12-12T18:53:08.228Z,6.10
2018-12-12T18:55:39.893Z,5.40
2018-12-12T18:58:11.778Z,5.77
2018-12-12T19:00:48.904Z,5.63
2018-12-12T19:03:20.540Z,5.90
2018-12-12T19:05:52.473Z,6.40
2018-12-12T19:08:24.071Z,5.78
2018-12-12T19:10:55.590Z,5.97
2018-12-12T19:13:32.711Z,5.70
2018-12-12T19:16:09.616Z,5.53
2018-12-12T19:18:46.594Z,5.37
2018-12-12T19:24:27.803Z,5.80
2018-12-12T19:27:05.028Z,5.30
2018-12-12T19:29:41.839Z,5.40
2018-12-12T19:32:14.240Z,5.13
2018-12-12T19:34:51.955Z,5.43
2018-12-12T19:37:23.425Z,5.40
2018-12-12T19:40:06.217Z,6.23
2018-12-12T19:42:41.087Z,5.30
2018-12-12T19:45:12.606Z,5.47
2018-12-12T19:47:44.288Z,5.57
2018-12-12T19:53:21.138Z,6.43
2018-12-12T19:55:58.434Z,6.73
2018-12-12T19:58:39.378Z,6.30
2018-12-12T20:01:10.948Z,6.07
2018-12-12T20:03:42.471Z,6.30
2018-12-12T20:06:14.420Z,6.07
2018-12-12T20:08:51.835Z,5.97
2018-12-12T20:11:23.356Z,6.47
2018-12-12T20:13:58.421Z,6.67
2018-12-12T20:16:35.118Z,7.07
2018-12-12T20:19:12.293Z,6.13
2018-12-12T20:21:49.084Z,6.53
2018-12-12T20:24:20.754Z,6.33
2018-12-12T20:26:58.484Z,7.20
2018-12-12T20:29:35.847Z,6.53
2018-12-12T20:32:28.462Z,6.77
2018-12-12T20:35:02.335Z,6.87
2018-12-12T20:37:39.852Z,6.87
2018-12-12T20:40:17.051Z,6.03
2018-12-12T20:42:48.495Z,5.93
2018-12-12T20:45:24.714Z,6.33
2018-12-12T20:47:57.023Z,6.27
2018-12-12T20:50:40.071Z,5.67
2018-12-12T20:56:12.059Z,6.00
2018-12-12T20:58:43.575Z,6.50
2018-12-12T21:01:14.979Z,5.77
2018-12-12T21:03:46.485Z,6.17
2018-12-12T21:06:18.090Z,5.67
2018-12-12T21:08:49.610Z,6.27
2018-12-12T21:11:21.261Z,6.20
2018-12-12T21:13:58.207Z,6.27
2018-12-12T21:16:29.785Z,6.40
2018-12-12T21:19:01.395Z,6.63
2018-12-12T21:21:32.826Z,6.27
2018-12-12T21:24:04.120Z,6.57
2018-12-12T21:26:35.676Z,6.17
2018-12-12T21:29:07.083Z,6.37
2018-12-12T21:31:38.401Z,7.53
2018-12-12T21:34:10.070Z,6.73
2018-12-12T21:36:41.419Z,7.27
2018-12-12T21:39:13.337Z,7.80
2018-12-12T21:41:44.757Z,7.70
2018-12-12T21:44:16.237Z,7.87
2018-12-12T21:46:53.602Z,7.37
2018-12-12T21:49:25.144Z,7.90
2018-12-12T21:51:56.597Z,7.40
2018-12-12T21:54:33.672Z,8.70
2018-12-12T21:57:10.556Z,8.63
2018-12-12T21:59:45.283Z,7.93
2018-12-12T22:02:22.297Z,8.30
2018-12-12T22:04:53.467Z,8.10
2018-12-12T22:07:39.787Z,8.83
2018-12-12T22:10:11.608Z,8.85
2018-12-12T22:12:42.854Z,8.73
2018-12-12T22:15:13.914Z,9.30
2018-12-12T22:17:50.262Z,8.43
2018-12-12T22:20:21.284Z,7.57
2018-12-12T22:22:52.531Z,8.07
2018-12-12T22:25:23.411Z,8.43
2018-12-12T22:27:54.125Z,8.13
2018-12-12T22:30:24.818Z,7.70
2018-12-12T22:36:05.570Z,8.63
2018-12-12T22:38:36.451Z,8.03
2018-12-12T22:41:07.197Z,8.57
2018-12-12T22:43:53.196Z,8.60
2018-12-12T22:46:24.064Z,7.27
2018-12-12T22:48:55.030Z,7.47
2018-12-12T22:51:25.979Z,7.50
2018-12-12T22:53:56.791Z,7.70
2018-12-12T22:56:33.450Z,7.30
2018-12-12T22:59:04.327Z,7.70
2018-12-12T23:01:35.384Z,7.93
2018-12-12T23:04:06.347Z,7.87
2018-12-12T23:06:37.378Z,7.43
2018-12-12T23:09:09.829Z,7.03
2018-12-12T23:11:40.708Z,7.87
2018-12-12T23:14:11.796Z,7.70
2018-12-12T23:16:48.696Z,7.53
2018-12-12T23:19:19.665Z,7.03
2018-12-12T23:21:56.415Z,7.37
2018-12-12T23:24:36.735Z,7.33
2018-12-12T23:27:07.788Z,6.87
2018-12-12T23:29:38.650Z,7.70
2018-12-12T23:32:09.783Z,6.57
2018-12-12T23:34:40.487Z,6.90
2018-12-12T23:37:11.207Z,7.77
2018-12-12T23:39:42.196Z,7.20
2018-12-12T23:42:12.854Z,6.87
2018-12-12T23:44:43.577Z,7.90
2018-12-12T23:47:14.316Z,6.50
2018-12-12T23:49:50.963Z,7.10
2018-12-12T23:52:26.766Z,7.87
2018-12-12T23:54:57.664Z,7.70
2018-12-12T23:57:28.523Z,7.50
2018-12-12T23:59:59.295Z,7.23
